首页
METAR-TAF:

METAR-TAF

机场 :

直布羅陀機場

直布罗陀, 直布罗陀

纬度: 36-09N, 经度: 005-21W, 海拔: 5米

当前天气观测

该预报发布于35分钟前的22:50 UTC
风速7节,风向东转东南
温度 21°C
湿度 88%
气压 1015 hPa
能見度: 9000

METAR: LXGB 132250Z AUTO 11007KT 9000 // FEW021/// 21/19 Q1015

时间: 01:25 (23:25 UTC)

预报

该预报发布于4小时和37分钟前的18:48 UTC
预报有效从13日的 18点(UTC)到 13日的 22点(UTC)
风速10节,风向东转东南
能見度: 8000
多云层高于1300英尺
短暂存在
从 13日的 18点(UTC)到 13日的 21点(UTC)
能見度: 5000
轻雾
几率 30% :
短暂存在
从 13日的 18点(UTC)到 13日的 22点(UTC)
少量云层高于1000英尺
散云层高于2000英尺

TAF: LXGB 131848Z 1318/1322 11010KT 8000 HZ BKN013 TEMPO 1318/1321 5000 BR PROB30 TEMPO 1318/1322 FEW010 SCT020

超过4000个机场的气象观测和天气预报(METAR&TAF报告)。

可查询的气象台以黄色和红色小点在地图上表示。

将鼠标移到小点上方,可查看气象台名称。

然后点击查看天气观测和预报。

如需切换地图:点击带黑十字的绿色按钮放大地图;点击带横线的绿色按钮缩小地图;或者点击绿色箭头查看邻近地区的地图。


METAR-TAF: